createdAt,value
2019-02-26T00:01:26.242Z,5.70
2019-02-26T00:03:56.999Z,5.71
2019-02-26T00:06:28.468Z,5.72
2019-02-26T00:08:59.386Z,5.70
2019-02-26T00:11:33.316Z,5.64
2019-02-26T00:14:02.544Z,5.61
2019-02-26T00:16:37.597Z,5.55
2019-02-26T00:19:07.310Z,5.52
2019-02-26T00:21:36.408Z,5.48
2019-02-26T00:24:07.331Z,5.41
2019-02-26T00:26:40.342Z,5.38
2019-02-26T00:29:09.425Z,5.42
2019-02-26T00:31:39.083Z,5.44
2019-02-26T00:34:10.674Z,5.45
2019-02-26T00:36:39.489Z,5.45
2019-02-26T00:39:10.552Z,5.40
2019-02-26T00:41:40.473Z,5.31
2019-02-26T00:44:11.187Z,5.21
2019-02-26T00:46:40.552Z,5.13
2019-02-26T00:49:10.153Z,5.10
2019-02-26T00:51:41.740Z,5.06
2019-02-26T00:54:10.554Z,5.00
2019-02-26T00:56:41.096Z,4.93
2019-02-26T00:59:10.540Z,4.81
2019-02-26T01:01:44.059Z,4.72
2019-02-26T01:04:11.259Z,4.69
2019-02-26T01:06:40.976Z,4.66
2019-02-26T01:09:12.077Z,4.65
2019-02-26T01:11:43.011Z,4.59
2019-02-26T01:14:13.676Z,4.51
2019-02-26T01:16:46.103Z,4.46
2019-02-26T01:19:17.519Z,4.44
2019-02-26T01:21:46.974Z,4.44
2019-02-26T01:24:16.474Z,4.44
2019-02-26T01:26:45.832Z,4.45
2019-02-26T01:29:18.613Z,4.45
2019-02-26T01:31:46.610Z,4.44
2019-02-26T01:34:18.072Z,4.45
2019-02-26T01:36:49.604Z,4.44
2019-02-26T01:39:21.130Z,4.41
2019-02-26T01:41:53.405Z,4.40
2019-02-26T01:44:21.686Z,4.39
2019-02-26T01:46:53.311Z,4.38
2019-02-26T01:49:23.737Z,4.35
2019-02-26T01:51:54.021Z,4.34
2019-02-26T01:54:23.819Z,4.36
2019-02-26T01:56:53.535Z,4.32
2019-02-26T01:59:22.903Z,4.32
2019-02-26T02:01:53.755Z,4.29
2019-02-26T02:04:23.870Z,4.27
2019-02-26T02:06:54.879Z,4.23
2019-02-26T02:09:27.850Z,4.20
2019-02-26T02:11:59.534Z,4.17
2019-02-26T02:14:28.895Z,4.17
2019-02-26T02:16:58.511Z,4.17
2019-02-26T02:19:30.193Z,4.17
2019-02-26T02:21:58.922Z,4.18
2019-02-26T02:24:28.835Z,4.19
2019-02-26T02:27:00.272Z,4.17
2019-02-26T02:29:31.938Z,4.18
2019-02-26T02:32:02.836Z,4.18
2019-02-26T02:34:36.587Z,4.19
2019-02-26T02:37:05.264Z,4.20
2019-02-26T02:39:34.920Z,4.22
2019-02-26T02:42:04.265Z,4.20
2019-02-26T02:44:34.076Z,4.18
2019-02-26T02:47:05.751Z,4.15
2019-02-26T02:49:38.918Z,4.12
2019-02-26T02:52:07.231Z,4.09
2019-02-26T02:54:38.566Z,4.06
2019-02-26T02:57:09.966Z,4.03
2019-02-26T02:59:42.304Z,4.01
2019-02-26T03:02:12.666Z,4.00
2019-02-26T03:04:42.105Z,4.00
2019-02-26T03:07:11.642Z,3.98
2019-02-26T03:09:43.297Z,3.98
2019-02-26T03:12:12.633Z,3.98
2019-02-26T03:14:44.516Z,3.96
2019-02-26T03:17:14.758Z,3.94
2019-02-26T03:19:44.720Z,3.90
2019-02-26T03:22:17.398Z,3.88
2019-02-26T03:24:45.438Z,3.85
2019-02-26T03:27:14.840Z,3.81
2019-02-26T03:29:45.057Z,3.79
2019-02-26T03:32:15.809Z,3.79
2019-02-26T03:34:46.224Z,3.79
2019-02-26T03:37:16.024Z,3.74
2019-02-26T03:39:45.418Z,3.68
2019-02-26T03:42:16.679Z,3.64
2019-02-26T03:44:47.036Z,3.59
2019-02-26T03:47:18.813Z,3.51
2019-02-26T03:49:48.145Z,3.44
2019-02-26T03:52:17.787Z,3.41
2019-02-26T03:54:48.590Z,3.37
2019-02-26T03:57:20.096Z,3.34
2019-02-26T03:59:49.287Z,3.26
2019-02-26T04:02:20.857Z,3.20
2019-02-26T04:04:53.894Z,3.14
2019-02-26T04:07:22.847Z,3.13
2019-02-26T04:09:53.110Z,3.10
2019-02-26T04:12:23.330Z,3.07
2019-02-26T04:14:52.983Z,3.04
2019-02-26T04:17:25.739Z,3.01
2019-02-26T04:19:54.405Z,3.00
2019-02-26T04:22:28.075Z,2.99
2019-02-26T04:25:06.379Z,2.95
2019-02-26T04:27:56.358Z,2.95
2019-02-26T04:30:56.359Z,2.92
2019-02-26T04:33:30.320Z,2.90
2019-02-26T04:36:20.449Z,2.90
2019-02-26T04:39:16.913Z,2.82
2019-02-26T04:42:09.459Z,2.82
2019-02-26T04:45:09.066Z,2.79
2019-02-26T04:47:49.498Z,2.73
2019-02-26T04:50:18.181Z,2.68
2019-02-26T04:52:47.547Z,2.63
2019-02-26T04:55:17.151Z,2.63
2019-02-26T04:57:49.062Z,2.61
2019-02-26T05:00:18.213Z,2.58
2019-02-26T05:02:47.581Z,2.53
2019-02-26T05:05:17.148Z,2.49
2019-02-26T05:07:47.992Z,2.49
2019-02-26T05:10:17.622Z,2.48
2019-02-26T05:12:47.263Z,2.45
2019-02-26T05:15:18.076Z,2.43
2019-02-26T05:17:47.927Z,2.42
2019-02-26T05:20:18.955Z,2.41
2019-02-26T05:22:48.718Z,2.40
2019-02-26T05:25:19.805Z,2.39
2019-02-26T05:27:50.893Z,2.39
2019-02-26T05:30:22.880Z,2.37
2019-02-26T05:32:56.590Z,2.36
2019-02-26T05:35:25.283Z,2.36
2019-02-26T05:37:56.190Z,2.35
2019-02-26T05:40:27.360Z,2.37
2019-02-26T05:42:59.318Z,2.37
2019-02-26T05:45:29.863Z,2.39
2019-02-26T05:48:01.212Z,2.41
2019-02-26T05:50:34.667Z,2.42
2019-02-26T05:53:04.917Z,2.44
2019-02-26T05:55:34.853Z,2.45
2019-02-26T05:58:04.489Z,2.46
2019-02-26T06:00:34.813Z,2.45
2019-02-26T06:03:07.192Z,2.45
2019-02-26T06:05:35.896Z,2.46
2019-02-26T06:08:05.618Z,2.48
2019-02-26T06:10:35.042Z,2.47
2019-02-26T06:13:05.376Z,2.48
2019-02-26T06:15:35.800Z,2.47
2019-02-26T06:18:06.470Z,2.45
2019-02-26T06:20:36.645Z,2.43
2019-02-26T06:23:06.465Z,2.44
2019-02-26T06:25:36.126Z,2.45
2019-02-26T06:28:07.697Z,2.44
2019-02-26T06:30:36.898Z,2.41
2019-02-26T06:33:09.120Z,2.39
2019-02-26T06:35:38.435Z,2.40
2019-02-26T06:38:09.806Z,2.41
2019-02-26T06:40:42.314Z,2.43
2019-02-26T06:43:11.502Z,2.46
2019-02-26T06:45:43.062Z,2.47
2019-02-26T06:48:14.654Z,2.48
2019-02-26T06:50:43.485Z,2.51
2019-02-26T06:53:14.350Z,2.54
2019-02-26T06:55:44.876Z,2.60
2019-02-26T06:58:22.122Z,2.70
2019-02-26T07:00:55.378Z,2.88
2019-02-26T07:03:25.070Z,3.13
2019-02-26T07:05:54.884Z,3.40
2019-02-26T07:08:26.769Z,3.67
2019-02-26T07:10:55.715Z,3.91
2019-02-26T07:13:30.575Z,4.14
2019-02-26T07:16:06.026Z,4.36
2019-02-26T07:18:35.676Z,4.59
2019-02-26T07:21:05.039Z,4.81
2019-02-26T07:23:37.627Z,5.03
2019-02-26T07:26:06.668Z,5.25
2019-02-26T07:28:39.703Z,5.41
2019-02-26T07:31:10.299Z,5.46
2019-02-26T07:33:40.041Z,5.59
2019-02-26T07:36:09.722Z,5.76
2019-02-26T07:38:41.507Z,5.90
2019-02-26T07:41:10.147Z,6.02
2019-02-26T07:43:41.797Z,6.19
2019-02-26T07:46:12.695Z,6.35
2019-02-26T07:48:42.082Z,6.49
2019-02-26T07:51:12.442Z,6.65
2019-02-26T07:53:48.518Z,6.76
2019-02-26T07:56:13.824Z,6.88
2019-02-26T07:58:43.257Z,7.05
2019-02-26T08:01:12.911Z,7.59
2019-02-26T08:03:44.036Z,7.59
2019-02-26T08:06:14.016Z,7.88
2019-02-26T08:08:44.910Z,8.14
2019-02-26T08:11:14.990Z,8.62
2019-02-26T08:13:44.379Z,8.80
2019-02-26T08:16:13.904Z,9.01
2019-02-26T08:18:43.280Z,9.01
2019-02-26T08:21:12.927Z,9.08
2019-02-26T08:23:43.668Z,9.08
2019-02-26T08:26:15.005Z,9.12
2019-02-26T08:28:45.815Z,9.30
2019-02-26T08:31:20.673Z,9.57
2019-02-26T08:33:51.795Z,9.89
2019-02-26T08:36:21.274Z,10.20
2019-02-26T08:38:52.047Z,10.49
2019-02-26T08:41:22.166Z,10.78
2019-02-26T08:43:54.000Z,11.16
2019-02-26T08:46:23.178Z,11.25
2019-02-26T08:48:52.623Z,11.32
2019-02-26T08:51:22.070Z,11.58
2019-02-26T08:53:51.903Z,11.93
2019-02-26T08:56:26.217Z,12.34
2019-02-26T08:58:55.384Z,12.76
2019-02-26T09:01:25.159Z,13.13
2019-02-26T09:03:55.846Z,13.49
2019-02-26T09:06:25.958Z,13.84
2019-02-26T09:08:57.347Z,13.99
2019-02-26T09:11:28.636Z,14.11
2019-02-26T09:13:59.591Z,14.28
2019-02-26T09:16:30.346Z,14.44
2019-02-26T09:18:59.544Z,14.69
2019-02-26T09:21:30.438Z,15.03
2019-02-26T09:24:04.227Z,15.40
2019-02-26T09:26:31.208Z,15.82
2019-02-26T09:29:00.577Z,16.16
2019-02-26T09:31:31.220Z,16.68
2019-02-26T09:34:00.826Z,16.68
2019-02-26T09:36:30.186Z,16.89
2019-02-26T09:38:59.553Z,17.08
2019-02-26T09:41:29.216Z,17.14
2019-02-26T09:43:59.381Z,17.20
2019-02-26T09:46:31.771Z,17.28
2019-02-26T09:49:03.148Z,17.36
2019-02-26T09:51:33.534Z,17.53
2019-02-26T09:54:03.684Z,17.72
2019-02-26T09:56:33.241Z,17.93
2019-02-26T09:59:04.737Z,18.16
2019-02-26T10:01:37.699Z,18.32
2019-02-26T10:04:06.575Z,18.45
2019-02-26T10:06:37.906Z,18.74
2019-02-26T10:09:10.876Z,19.13
2019-02-26T10:11:41.929Z,19.53
2019-02-26T10:14:12.765Z,19.95
2019-02-26T10:16:44.566Z,20.26
2019-02-26T10:19:14.953Z,20.26
2019-02-26T10:21:45.255Z,20.21
2019-02-26T10:24:14.700Z,20.17
2019-02-26T10:26:44.340Z,20.25
2019-02-26T10:29:13.962Z,20.35
2019-02-26T10:31:43.831Z,20.51
2019-02-26T10:34:15.681Z,20.72
2019-02-26T10:36:47.278Z,21.01
2019-02-26T10:39:20.087Z,21.37
2019-02-26T10:41:47.617Z,21.89
2019-02-26T10:44:17.282Z,21.89
2019-02-26T10:46:47.171Z,21.97
2019-02-26T10:49:16.856Z,22.12
2019-02-26T10:51:46.555Z,22.34
2019-02-26T10:54:17.945Z,22.56
2019-02-26T10:56:46.933Z,22.78
2019-02-26T10:59:19.567Z,22.83
2019-02-26T11:01:51.679Z,22.86
2019-02-26T11:04:19.114Z,23.07
2019-02-26T11:06:50.691Z,23.29
2019-02-26T11:09:25.310Z,23.47
2019-02-26T11:11:51.748Z,23.90
2019-02-26T11:14:21.738Z,23.90
2019-02-26T11:16:51.093Z,24.12
2019-02-26T11:19:20.651Z,24.26
2019-02-26T11:21:51.951Z,24.39
2019-02-26T11:24:23.323Z,24.39
2019-02-26T11:26:52.104Z,24.23
2019-02-26T11:29:21.525Z,24.13
2019-02-26T11:31:51.192Z,24.14
2019-02-26T11:34:20.988Z,24.31
2019-02-26T11:36:54.179Z,24.45
2019-02-26T11:39:23.900Z,24.52
2019-02-26T11:41:56.249Z,24.58
2019-02-26T11:44:25.904Z,24.78
2019-02-26T11:46:56.618Z,24.94
2019-02-26T11:49:26.020Z,24.69
2019-02-26T11:51:56.343Z,24.52
2019-02-26T11:54:25.717Z,24.72
2019-02-26T11:56:55.068Z,24.93
2019-02-26T11:59:24.669Z,25.15
2019-02-26T12:01:56.022Z,25.33
2019-02-26T12:04:25.149Z,25.49
2019-02-26T12:06:55.894Z,25.65
2019-02-26T12:09:25.936Z,25.30
2019-02-26T12:11:56.063Z,25.24
2019-02-26T12:14:27.747Z,25.28
2019-02-26T12:16:57.494Z,25.47
2019-02-26T12:19:28.418Z,25.67
2019-02-26T12:22:00.798Z,25.77
2019-02-26T12:24:31.271Z,25.71
2019-02-26T12:27:00.371Z,25.76
2019-02-26T12:29:29.864Z,25.57
2019-02-26T12:32:01.181Z,25.44
2019-02-26T12:34:30.278Z,25.40
2019-02-26T12:37:02.813Z,25.59
2019-02-26T12:39:33.517Z,25.79
2019-02-26T12:42:02.866Z,25.94
2019-02-26T12:44:34.787Z,25.91
2019-02-26T12:47:03.525Z,25.95
2019-02-26T12:49:35.628Z,25.84
2019-02-26T12:52:04.218Z,25.74
2019-02-26T12:54:37.276Z,25.63
2019-02-26T12:57:04.625Z,25.47
2019-02-26T12:59:34.165Z,25.47
2019-02-26T13:02:05.565Z,25.69
2019-02-26T13:04:37.378Z,25.93
2019-02-26T13:07:08.648Z,26.24
2019-02-26T13:09:41.114Z,26.52
2019-02-26T13:12:07.817Z,26.82
2019-02-26T13:14:37.446Z,26.95
2019-02-26T13:17:07.151Z,27.01
2019-02-26T13:19:37.293Z,27.20
2019-02-26T13:22:11.959Z,27.20
2019-02-26T13:24:38.198Z,27.18
2019-02-26T13:27:07.559Z,27.21
2019-02-26T13:29:42.394Z,27.19
2019-02-26T13:32:13.117Z,27.24
2019-02-26T13:34:39.939Z,27.22
2019-02-26T13:37:09.341Z,27.08
2019-02-26T13:39:41.432Z,27.05
2019-02-26T13:42:13.246Z,27.12
2019-02-26T13:44:40.804Z,27.25
2019-02-26T13:47:10.556Z,27.32
2019-02-26T13:49:40.585Z,27.36
2019-02-26T13:52:09.947Z,27.30
2019-02-26T13:54:39.613Z,27.14
2019-02-26T13:57:09.341Z,27.08
2019-02-26T13:59:38.691Z,27.04
2019-02-26T14:02:13.893Z,26.97
2019-02-26T14:04:43.707Z,26.96
2019-02-26T14:07:13.324Z,26.99
2019-02-26T14:09:42.788Z,26.94
2019-02-26T14:12:12.156Z,26.94
2019-02-26T14:14:41.728Z,26.98
2019-02-26T14:17:11.111Z,26.91
2019-02-26T14:19:40.807Z,26.73
2019-02-26T14:22:10.162Z,26.61
2019-02-26T14:24:39.851Z,26.66
2019-02-26T14:27:09.850Z,26.70
2019-02-26T14:29:39.554Z,26.68
2019-02-26T14:32:09.169Z,26.63
2019-02-26T14:34:40.242Z,26.64
2019-02-26T14:37:10.938Z,26.72
2019-02-26T14:39:40.603Z,26.80
2019-02-26T14:42:09.969Z,26.78
2019-02-26T14:44:39.660Z,26.56
2019-02-26T14:47:09.023Z,26.38
2019-02-26T14:49:38.679Z,26.23
2019-02-26T14:52:08.554Z,26.04
2019-02-26T14:54:37.889Z,25.91
2019-02-26T14:57:07.551Z,25.89
2019-02-26T14:59:37.203Z,25.99
2019-02-26T15:02:07.123Z,25.93
2019-02-26T15:04:37.101Z,25.78
2019-02-26T15:07:06.669Z,25.61
2019-02-26T15:09:37.036Z,25.53
2019-02-26T15:12:08.074Z,25.43
2019-02-26T15:14:37.509Z,25.20
2019-02-26T15:17:06.850Z,25.07
2019-02-26T15:19:49.214Z,25.03
2019-02-26T15:22:08.312Z,24.96
2019-02-26T15:24:37.974Z,24.91
2019-02-26T15:27:07.325Z,24.75
2019-02-26T15:29:37.145Z,24.55
2019-02-26T15:32:07.137Z,24.34
2019-02-26T15:34:37.193Z,24.14
2019-02-26T15:37:06.801Z,24.01
2019-02-26T15:39:37.155Z,23.83
2019-02-26T15:42:06.836Z,23.67
2019-02-26T15:44:37.426Z,23.56
2019-02-26T15:47:07.054Z,23.57
2019-02-26T15:49:37.768Z,23.67
2019-02-26T15:52:07.796Z,23.72
2019-02-26T15:54:37.587Z,23.73
2019-02-26T15:57:07.964Z,23.71
2019-02-26T15:59:37.413Z,23.66
2019-02-26T16:02:06.817Z,23.66
2019-02-26T16:04:37.516Z,23.66
2019-02-26T16:07:06.898Z,23.69
2019-02-26T16:09:37.420Z,23.68
2019-02-26T16:12:07.240Z,23.59
2019-02-26T16:14:37.507Z,23.50
2019-02-26T16:17:07.075Z,23.43
2019-02-26T16:19:37.254Z,23.37
2019-02-26T16:22:06.864Z,23.31
2019-02-26T16:24:37.527Z,23.25
2019-02-26T16:27:07.336Z,23.14
2019-02-26T16:29:37.977Z,23.03
2019-02-26T16:32:07.368Z,22.82
2019-02-26T16:34:38.322Z,22.51
2019-02-26T17:25:10.647Z,18.15
2019-02-26T17:27:40.314Z,17.96
2019-02-26T17:30:12.450Z,17.72
2019-02-26T17:32:42.094Z,17.47
2019-02-26T17:35:12.595Z,17.24
2019-02-26T17:37:42.306Z,17.07
2019-02-26T17:40:20.285Z,17.02
2019-02-26T17:42:51.339Z,17.01
2019-02-26T17:45:26.331Z,16.98
2019-02-26T17:47:57.408Z,16.93
2019-02-26T17:50:33.581Z,16.88
2019-02-26T17:53:03.518Z,16.77
2019-02-26T17:55:33.163Z,16.61
2019-02-26T17:58:02.785Z,16.45
2019-02-26T18:00:33.940Z,16.27
2019-02-26T18:03:06.391Z,16.11
2019-02-26T18:05:34.375Z,15.99
2019-02-26T18:08:04.064Z,15.90
2019-02-26T18:10:33.411Z,15.81
2019-02-26T18:13:03.462Z,15.69
2019-02-26T18:15:32.809Z,15.59
2019-02-26T18:18:02.322Z,15.52
2019-02-26T18:20:31.666Z,15.41
2019-02-26T18:23:01.475Z,15.27
2019-02-26T18:25:32.100Z,15.13
2019-02-26T18:28:01.711Z,14.81
2019-02-26T18:30:32.560Z,14.81
2019-02-26T18:33:02.223Z,14.66
2019-02-26T18:35:31.643Z,14.56
2019-02-26T18:38:01.300Z,14.50
2019-02-26T18:40:30.643Z,14.42
2019-02-26T18:43:00.171Z,14.30
2019-02-26T18:45:30.834Z,14.17
2019-02-26T18:48:00.298Z,14.02
2019-02-26T18:50:30.152Z,13.89
2019-02-26T18:52:59.508Z,13.76
2019-02-26T18:55:32.312Z,13.62
2019-02-26T18:58:00.674Z,13.45
2019-02-26T19:00:33.024Z,13.29
2019-02-26T19:03:02.412Z,13.11
2019-02-26T19:05:32.183Z,13.00
2019-02-26T19:08:05.536Z,12.93
2019-02-26T19:10:33.285Z,12.91
2019-02-26T19:13:03.342Z,12.85
2019-02-26T19:15:34.243Z,12.76
2019-02-26T19:18:03.700Z,12.65
2019-02-26T19:20:38.198Z,12.59
2019-02-26T19:23:07.661Z,12.53
2019-02-26T19:25:41.413Z,12.47
2019-02-26T19:28:09.895Z,12.42
2019-02-26T19:30:39.688Z,12.38
2019-02-26T19:33:09.404Z,12.26
2019-02-26T19:35:40.497Z,12.26
2019-02-26T19:38:10.630Z,12.25
2019-02-26T19:40:58.383Z,12.16
2019-02-26T19:43:28.896Z,12.11
2019-02-26T19:45:58.531Z,11.85
2019-02-26T19:48:30.487Z,11.85
2019-02-26T19:50:58.952Z,11.76
2019-02-26T19:53:28.417Z,11.59
2019-02-26T19:55:58.010Z,11.45
2019-02-26T19:58:27.536Z,11.06
2019-02-26T20:00:56.876Z,11.06
2019-02-26T20:03:26.494Z,10.92
2019-02-26T20:05:55.844Z,10.84
2019-02-26T20:08:25.525Z,10.78
2019-02-26T20:10:54.869Z,10.68
2019-02-26T20:13:25.650Z,10.55
2019-02-26T20:15:55.422Z,10.39
2019-02-26T20:18:26.170Z,10.29
2019-02-26T20:20:56.008Z,10.18
2019-02-26T20:23:25.562Z,10.07
2019-02-26T20:25:55.264Z,9.93
2019-02-26T20:28:24.684Z,9.81
2019-02-26T20:30:54.330Z,9.71
2019-02-26T20:33:23.689Z,9.60
2019-02-26T20:35:53.032Z,9.51
2019-02-26T20:38:22.938Z,9.47
2019-02-26T20:40:52.970Z,9.38
2019-02-26T20:43:22.982Z,9.28
2019-02-26T20:45:52.633Z,9.22
2019-02-26T20:48:22.034Z,9.18
2019-02-26T20:50:53.749Z,9.17
2019-02-26T20:53:22.818Z,9.19
2019-02-26T20:55:52.930Z,9.23
2019-02-26T20:58:23.281Z,9.21
2019-02-26T21:00:58.818Z,9.20
2019-02-26T21:03:29.405Z,9.17
2019-02-26T21:05:59.055Z,9.10
2019-02-26T21:08:30.938Z,9.05
2019-02-26T21:10:59.851Z,9.02
2019-02-26T21:13:29.210Z,9.02
2019-02-26T21:15:58.814Z,8.98
2019-02-26T21:18:30.255Z,9.01
2019-02-26T21:20:59.219Z,8.99
2019-02-26T21:23:28.757Z,8.98
2019-02-26T21:25:58.095Z,8.92
2019-02-26T21:28:27.756Z,8.78
2019-02-26T21:30:57.102Z,8.62
2019-02-26T21:33:30.588Z,8.52
2019-02-26T21:35:57.914Z,8.43
2019-02-26T21:38:27.279Z,8.34
2019-02-26T21:40:56.850Z,8.25
2019-02-26T21:43:26.241Z,8.14
2019-02-26T21:45:56.133Z,8.02
2019-02-26T21:48:25.473Z,7.94
2019-02-26T21:50:55.419Z,7.89
2019-02-26T21:53:25.012Z,7.89
2019-02-26T21:55:55.664Z,7.86
2019-02-26T21:58:26.931Z,7.81
2019-02-26T22:00:56.151Z,7.74
2019-02-26T22:03:26.567Z,7.73
2019-02-26T22:06:05.080Z,7.66
2019-02-26T22:08:28.094Z,7.60
2019-02-26T22:10:57.458Z,7.56
2019-02-26T22:13:29.051Z,7.42
2019-02-26T22:15:58.041Z,7.42
2019-02-26T22:18:31.169Z,7.31
2019-02-26T22:20:58.457Z,7.23
2019-02-26T22:23:29.384Z,7.22
2019-02-26T22:25:59.110Z,7.22
2019-02-26T22:28:28.449Z,7.20
2019-02-26T22:30:58.088Z,7.20
2019-02-26T22:33:27.713Z,7.14
2019-02-26T22:35:59.846Z,7.10
2019-02-26T22:38:28.481Z,7.11
2019-02-26T22:40:59.948Z,7.07
2019-02-26T22:43:29.185Z,7.04
2019-02-26T22:46:01.035Z,7.02
2019-02-26T22:48:30.128Z,6.98
2019-02-26T22:51:00.237Z,6.97
2019-02-26T22:53:30.588Z,6.93
2019-02-26T22:56:00.206Z,6.88
2019-02-26T22:58:29.542Z,6.86
2019-02-26T23:01:18.660Z,6.83
2019-02-26T23:03:49.619Z,6.82
2019-02-26T23:06:20.353Z,6.81
2019-02-26T23:08:49.760Z,6.77
2019-02-26T23:11:19.458Z,6.74
2019-02-26T23:13:48.959Z,6.72
2019-02-26T23:16:19.153Z,6.70
2019-02-26T23:18:48.661Z,6.64
2019-02-26T23:21:18.331Z,6.59
2019-02-26T23:23:48.331Z,6.58
2019-02-26T23:26:17.690Z,6.57
2019-02-26T23:28:47.326Z,6.55
2019-02-26T23:31:17.184Z,6.52
2019-02-26T23:33:48.407Z,6.45
2019-02-26T23:36:17.653Z,6.41
2019-02-26T23:38:47.458Z,6.31
2019-02-26T23:41:16.890Z,6.21
2019-02-26T23:43:46.610Z,6.14
2019-02-26T23:46:15.959Z,6.10
2019-02-26T23:48:45.597Z,6.05
2019-02-26T23:51:15.203Z,5.99
2019-02-26T23:53:44.546Z,5.92
2019-02-26T23:56:16.770Z,5.80
2019-02-26T23:58:46.025Z,5.71
